Time;durP1;ratioP1;P1;durP2;ratioP2;P2;SDS_P1;SDS_P2;PMS_P1;PMS_P2;Temp;Humidity;BMP_temperature;BMP_pressure;BME280_temperature;BME280_humidity;BME280_pressure;Samples;Min_cycle;Max_cycle;Signal;HPM_P1;HPM_P2
2022/12/15 00:39:41;;;;;;;17.08;5.38;;;;;;;;;;5092867;27;20636;-43
2022/12/15 00:42:08;;;;;;;10.70;4.60;;;;;;;;;;5093146;27;20495;-42
2022/12/15 00:44:34;;;;;;;11.63;5.55;;;;;;;;;;5093033;27;20110;-42
2022/12/15 00:47:00;;;;;;;10.32;4.50;;;;;;;;;;5093828;27;20043;-45
2022/12/15 01:22:28;;;;;;;13.43;4.22;;;;;;;;;;5092000;28;20115;-45
2022/12/15 01:24:54;;;;;;;10.48;4.20;;;;;;;;;;5091860;28;20602;-42
2022/12/15 01:27:20;;;;;;;10.85;4.35;;;;;;;;;;5091011;28;20673;-44
2022/12/15 01:29:46;;;;;;;10.50;4.10;;;;;;;;;;5092616;28;20047;-46
2022/12/15 01:32:13;;;;;;;10.55;4.97;;;;;;;;;;5091556;28;20053;-43
2022/12/15 01:34:39;;;;;;;12.60;4.55;;;;;;;;;;5090772;28;20210;-44
2022/12/15 01:37:05;;;;;;;15.32;4.18;;;;;;;;;;5091991;28;20058;-41
2022/12/15 01:40:43;;;;;;;10.10;4.45;;;;;;;;;;5092631;27;20538;-43
2022/12/15 01:42:17;;;;;;;10.25;4.18;;;;;;;;;;5096367;27;20043;-44
2022/12/15 01:44:44;;;;;;;11.38;3.83;;;;;;;;;;5095871;27;20039;-42
2022/12/15 01:47:12;;;;;;;11.75;4.32;;;;;;;;;;5095513;28;20051;-46
2022/12/15 01:49:39;;;;;;;8.95;4.95;;;;;;;;;;5097617;27;20043;-43
2022/12/15 01:52:06;;;;;;;9.15;4.07;;;;;;;;;;5095609;27;20512;-46
2022/12/15 01:54:35;;;;;;;11.20;4.30;;;;;;;;;;5095720;28;20203;-45
2022/12/15 01:57:06;;;;;;;10.10;5.38;;;;;;;;;;5097765;27;20068;-44
2022/12/15 01:59:34;;;;;;;9.50;4.28;;;;;;;;;;5096235;27;20043;-47
2022/12/15 02:02:01;;;;;;;11.63;5.50;;;;;;;;;;5096075;27;20052;-47
2022/12/15 02:04:27;;;;;;;11.70;4.97;;;;;;;;;;5096868;28;20048;-46
2022/12/15 02:06:53;;;;;;;8.85;4.70;;;;;;;;;;5095697;27;20032;-44
2022/12/15 02:09:20;;;;;;;11.75;4.57;;;;;;;;;;5095703;27;20125;-43
2022/12/15 02:11:57;;;;;;;10.30;4.72;;;;;;;;;;5097072;27;20043;-43
2022/12/15 02:14:25;;;;;;;14.25;4.60;;;;;;;;;;5095656;27;20529;-41
2022/12/15 02:16:58;;;;;;;12.10;4.30;;;;;;;;;;5094697;27;20135;-41
2022/12/15 02:19:24;;;;;;;;;;;;;;;;;;5095767;28;20074;-41
2022/12/15 02:22:09;;;;;;;9.07;4.43;;;;;;;;;;5095961;27;19966;-44
2022/12/15 02:24:48;;;;;;;8.80;3.53;;;;;;;;;;5095168;27;20523;-42
2022/12/15 02:27:15;;;;;;;11.85;3.50;;;;;;;;;;5094568;27;20134;-43
2022/12/15 02:29:41;;;;;;;10.60;3.53;;;;;;;;;;5095005;27;20044;-45
2022/12/15 02:32:09;;;;;;;9.10;2.95;;;;;;;;;;5094159;27;20039;-41
2022/12/15 02:34:51;;;;;;;14.13;3.72;;;;;;;;;;5094696;27;20046;-45
2022/12/15 02:37:23;;;;;;;9.88;2.97;;;;;;;;;;5094811;27;20459;-42
2022/12/15 02:39:49;;;;;;;11.32;3.55;;;;;;;;;;5095361;27;20108;-42
2022/12/15 02:42:15;;;;;;;6.53;3.10;;;;;;;;;;5095290;27;20138;-44
2022/12/15 02:44:50;;;;;;;5.80;2.35;;;;;;;;;;5093369;27;20071;-42
2022/12/15 02:47:22;;;;;;;6.88;2.25;;;;;;;;;;5094709;27;20067;-43
2022/12/15 02:50:07;;;;;;;8.60;2.95;;;;;;;;;;5096832;27;20036;-42
2022/12/15 02:52:52;;;;;;;10.20;2.45;;;;;;;;;;5094476;27;20463;-43
2022/12/15 02:55:24;;;;;;;9.80;2.65;;;;;;;;;;5093308;28;20051;-43
2022/12/15 02:57:54;;;;;;;8.73;1.73;;;;;;;;;;5093981;27;20594;-41
2022/12/15 03:00:21;;;;;;;9.95;1.90;;;;;;;;;;5093826;27;20832;-43
2022/12/15 03:02:49;;;;;;;8.15;2.22;;;;;;;;;;5094701;27;20051;-44
2022/12/15 03:05:16;;;;;;;7.80;1.63;;;;;;;;;;5096208;27;20035;-43
2022/12/15 03:07:42;;;;;;;7.35;2.25;;;;;;;;;;5096121;27;20101;-42
2022/12/15 03:10:10;;;;;;;7.40;1.77;;;;;;;;;;5094699;28;20047;-41
2022/12/15 03:12:36;;;;;;;7.30;1.77;;;;;;;;;;5095457;27;20094;-43
2022/12/15 03:15:02;;;;;;;11.13;1.90;;;;;;;;;;5095965;27;20032;-42
2022/12/15 03:17:28;;;;;;;7.57;1.50;;;;;;;;;;5094756;27;20074;-43
2022/12/15 03:19:54;;;;;;;9.40;1.75;;;;;;;;;;5095450;28;20432;-42
2022/12/15 03:22:20;;;;;;;9.52;2.65;;;;;;;;;;5094574;28;20431;-41
2022/12/15 03:24:47;;;;;;;8.95;1.70;;;;;;;;;;5095515;27;20039;-45
2022/12/15 03:27:13;;;;;;;12.88;2.38;;;;;;;;;;5094785;27;20081;-43
2022/12/15 03:29:39;;;;;;;7.13;1.60;;;;;;;;;;5093619;28;20043;-43
2022/12/15 03:32:06;;;;;;;6.47;1.48;;;;;;;;;;5093390;27;20039;-42
2022/12/15 03:34:32;;;;;;;9.05;2.25;;;;;;;;;;5093020;27;20043;-44
2022/12/15 03:36:58;;;;;;;4.85;1.58;;;;;;;;;;5094090;27;20129;-41
2022/12/15 03:39:24;;;;;;;11.32;1.83;;;;;;;;;;5094589;27;20044;-44
2022/12/15 03:41:50;;;;;;;7.65;1.35;;;;;;;;;;5093946;27;20066;-41
2022/12/15 03:44:16;;;;;;;10.70;1.50;;;;;;;;;;5093402;27;20036;-42
2022/12/15 03:46:42;;;;;;;5.53;1.42;;;;;;;;;;5093820;27;20062;-41
2022/12/15 03:49:08;;;;;;;8.65;1.50;;;;;;;;;;5093758;28;20039;-42
2022/12/15 03:51:35;;;;;;;11.65;3.08;;;;;;;;;;5094172;28;20046;-43
2022/12/15 03:54:01;;;;;;;5.68;1.48;;;;;;;;;;5093071;27;20088;-42
2022/12/15 03:56:27;;;;;;;7.00;1.70;;;;;;;;;;5092737;27;20146;-43
2022/12/15 03:58:53;;;;;;;9.45;1.92;;;;;;;;;;5093982;27;20681;-42
2022/12/15 04:01:29;;;;;;;6.63;1.73;;;;;;;;;;5092463;27;20058;-44
2022/12/15 04:03:56;;;;;;;9.05;1.98;;;;;;;;;;5093285;27;20132;-44
2022/12/15 04:06:22;;;;;;;6.18;1.70;;;;;;;;;;5092688;27;20510;-42
2022/12/15 04:08:48;;;;;;;8.55;1.50;;;;;;;;;;5092685;27;20050;-42
2022/12/15 04:11:14;;;;;;;6.57;1.55;;;;;;;;;;5093228;28;20063;-43
2022/12/15 04:13:41;;;;;;;10.43;1.80;;;;;;;;;;5093871;28;20043;-42
2022/12/15 04:16:07;;;;;;;6.72;1.67;;;;;;;;;;5092574;27;20512;-43
2022/12/15 04:18:33;;;;;;;6.95;1.50;;;;;;;;;;5092588;27;20031;-44
2022/12/15 04:20:59;;;;;;;6.65;2.13;;;;;;;;;;5093968;27;20092;-43
2022/12/15 04:23:25;;;;;;;6.57;1.85;;;;;;;;;;5092603;27;20336;-45
2022/12/15 05:31:59;;;;;;;9.20;3.83;;;;;;;;;;5091333;28;20039;-44
2022/12/15 05:34:26;;;;;;;11.27;3.83;;;;;;;;;;5090279;28;20377;-45
2022/12/15 05:36:53;;;;;;;10.95;3.78;;;;;;;;;;5091511;28;20123;-45
2022/12/15 05:39:19;;;;;;;7.78;3.88;;;;;;;;;;5091742;28;20043;-46
2022/12/15 05:41:46;;;;;;;11.07;4.03;;;;;;;;;;5092106;28;20043;-45
2022/12/15 05:44:12;;;;;;;10.35;3.60;;;;;;;;;;5092212;28;20040;-45
2022/12/15 05:46:38;;;;;;;10.98;3.90;;;;;;;;;;5092650;28;20085;-46
2022/12/15 05:49:05;;;;;;;10.80;4.25;;;;;;;;;;5093691;28;20105;-44
2022/12/15 05:51:31;;;;;;;10.50;3.70;;;;;;;;;;5095070;28;20071;-46
2022/12/15 05:53:57;;;;;;;13.75;4.25;;;;;;;;;;5092448;28;20044;-47
2022/12/15 05:56:23;;;;;;;10.18;3.88;;;;;;;;;;5093001;28;20031;-46
2022/12/15 05:58:49;;;;;;;7.88;3.60;;;;;;;;;;5093196;28;20047;-45
2022/12/15 06:01:17;;;;;;;9.18;4.15;;;;;;;;;;5092602;28;20135;-44
2022/12/15 06:03:43;;;;;;;11.48;4.13;;;;;;;;;;5092088;28;20040;-47
2022/12/15 06:06:10;;;;;;;9.07;3.63;;;;;;;;;;5092016;28;20602;-44
2022/12/15 06:08:38;;;;;;;11.02;4.10;;;;;;;;;;5093108;28;20046;-44
2022/12/15 06:11:04;;;;;;;12.55;4.47;;;;;;;;;;5092431;28;20092;-45
2022/12/15 06:13:31;;;;;;;11.50;5.10;;;;;;;;;;5091693;28;20048;-45
2022/12/15 06:15:57;;;;;;;9.63;4.53;;;;;;;;;;5092100;28;20105;-47
2022/12/15 06:18:23;;;;;;;13.45;4.95;;;;;;;;;;5089448;28;20048;-45
2022/12/15 06:20:51;;;;;;;10.05;4.50;;;;;;;;;;5093115;28;20404;-45
2022/12/15 06:23:17;;;;;;;9.35;4.50;;;;;;;;;;5091384;28;20050;-45
2022/12/15 06:25:43;;;;;;;10.98;4.57;;;;;;;;;;5091453;28;20565;-46
2022/12/15 06:28:09;;;;;;;11.57;4.75;;;;;;;;;;5095388;27;20558;-45
2022/12/15 06:30:36;;;;;;;10.45;4.72;;;;;;;;;;5095251;27;20039;-45
2022/12/15 06:33:02;;;;;;;13.18;5.05;;;;;;;;;;5095502;27;20594;-45
2022/12/15 06:35:29;;;;;;;11.25;5.25;;;;;;;;;;5094984;28;20047;-43
2022/12/15 06:37:55;;;;;;;10.13;4.97;;;;;;;;;;5093921;28;20192;-46
2022/12/15 06:40:21;;;;;;;15.13;5.30;;;;;;;;;;5094022;27;20093;-47
2022/12/15 06:42:47;;;;;;;12.13;5.47;;;;;;;;;;5094621;28;20071;-44
2022/12/15 06:45:13;;;;;;;11.80;5.72;;;;;;;;;;5093785;27;20097;-43
2022/12/15 06:47:39;;;;;;;12.00;4.93;;;;;;;;;;5094790;27;20336;-45
2022/12/15 06:50:06;;;;;;;18.70;6.97;;;;;;;;;;5095493;27;20126;-43
2022/12/15 06:52:32;;;;;;;14.27;6.25;;;;;;;;;;5095219;27;20079;-43
2022/12/15 06:54:58;;;;;;;12.23;6.65;;;;;;;;;;5094296;27;20102;-41
2022/12/15 06:57:24;;;;;;;9.23;5.70;;;;;;;;;;5094842;28;20036;-45
2022/12/15 06:59:50;;;;;;;14.45;5.93;;;;;;;;;;5095176;27;20383;-41
2022/12/15 07:02:17;;;;;;;11.90;6.00;;;;;;;;;;5095556;27;20061;-42
2022/12/15 07:04:43;;;;;;;13.68;6.65;;;;;;;;;;5095239;27;21236;-43
2022/12/15 07:07:10;;;;;;;13.20;6.05;;;;;;;;;;5095343;28;20461;-44
2022/12/15 07:09:36;;;;;;;15.82;7.07;;;;;;;;;;5096931;27;20377;-42
2022/12/15 07:12:02;;;;;;;11.35;6.05;;;;;;;;;;5095873;27;20067;-42
2022/12/15 07:14:28;;;;;;;12.15;6.32;;;;;;;;;;5097009;28;20051;-42
2022/12/15 07:16:55;;;;;;;14.73;5.78;;;;;;;;;;5096108;27;20042;-42
2022/12/15 07:19:21;;;;;;;19.50;8.05;;;;;;;;;;5095552;27;20067;-43
2022/12/15 07:21:47;;;;;;;12.55;5.72;;;;;;;;;;5096776;27;20499;-42
2022/12/15 07:24:13;;;;;;;14.32;5.60;;;;;;;;;;5095768;27;21501;-42
2022/12/15 07:26:39;;;;;;;14.18;5.85;;;;;;;;;;5097799;27;20527;-41
2022/12/15 07:29:05;;;;;;;16.30;5.93;;;;;;;;;;5095654;27;20035;-42
2022/12/15 07:31:32;;;;;;;18.27;7.18;;;;;;;;;;5094446;27;20138;-41
2022/12/15 07:33:58;;;;;;;13.68;6.95;;;;;;;;;;5094741;27;20043;-42
2022/12/15 07:36:26;;;;;;;12.93;6.07;;;;;;;;;;5096111;27;20512;-43
2022/12/15 07:38:56;;;;;;;14.27;5.85;;;;;;;;;;5095225;27;20067;-41
2022/12/15 07:41:22;;;;;;;17.48;6.75;;;;;;;;;;5093892;27;20200;-41
2022/12/15 07:43:48;;;;;;;13.38;6.30;;;;;;;;;;5093359;28;20105;-44
2022/12/15 07:46:14;;;;;;;12.88;5.82;;;;;;;;;;5093683;27;20554;-42
2022/12/15 07:48:40;;;;;;;15.48;5.82;;;;;;;;;;5093954;27;20151;-45
2022/12/15 07:51:07;;;;;;;11.73;6.50;;;;;;;;;;5092642;27;20042;-42
2022/12/15 07:53:33;;;;;;;13.85;5.88;;;;;;;;;;5094054;27;20039;-43
2022/12/15 07:55:59;;;;;;;11.48;5.50;;;;;;;;;;5093703;27;20070;-41
2022/12/15 07:58:26;;;;;;;18.75;5.43;;;;;;;;;;5094356;27;20122;-47
2022/12/15 08:00:53;;;;;;;15.52;6.78;;;;;;;;;;5092121;28;20682;-42
2022/12/15 08:03:19;;;;;;;14.82;6.40;;;;;;;;;;5091980;28;20043;-43
2022/12/15 08:05:45;;;;;;;12.32;5.68;;;;;;;;;;5094080;28;20127;-45
2022/12/15 08:08:11;;;;;;;11.82;5.90;;;;;;;;;;5092295;28;20575;-43
2022/12/15 08:10:38;;;;;;;20.17;7.80;;;;;;;;;;5092964;27;20130;-46
2022/12/15 08:13:04;;;;;;;12.50;5.93;;;;;;;;;;5094258;28;20500;-43
2022/12/15 08:15:30;;;;;;;13.95;6.35;;;;;;;;;;5094849;27;20039;-42
2022/12/15 08:17:56;;;;;;;13.02;6.35;;;;;;;;;;5093276;27;20043;-43
2022/12/15 08:20:23;;;;;;;12.18;6.78;;;;;;;;;;5093237;27;20099;-42
2022/12/15 08:22:50;;;;;;;13.77;6.55;;;;;;;;;;5095482;27;20036;-43
2022/12/15 08:25:17;;;;;;;13.40;7.20;;;;;;;;;;5092882;27;20492;-45
2022/12/15 08:27:43;;;;;;;11.85;6.40;;;;;;;;;;5093753;28;20035;-42
2022/12/15 08:30:09;;;;;;;13.77;7.10;;;;;;;;;;5092874;28;20035;-42
2022/12/15 08:32:35;;;;;;;15.38;6.40;;;;;;;;;;5094216;27;20039;-43
2022/12/15 08:35:01;;;;;;;15.93;6.68;;;;;;;;;;5093492;27;20515;-43
2022/12/15 08:37:27;;;;;;;13.13;6.82;;;;;;;;;;5093680;28;20425;-41
2022/12/15 08:39:53;;;;;;;21.05;12.15;;;;;;;;;;5094956;27;20252;-42
2022/12/15 08:42:20;;;;;;;14.77;8.85;;;;;;;;;;5093142;27;20408;-42
2022/12/15 08:44:49;;;;;;;14.95;8.45;;;;;;;;;;5093106;27;20122;-42
2022/12/15 08:47:15;;;;;;;20.02;13.77;;;;;;;;;;5091199;27;20044;-43
2022/12/15 08:49:41;;;;;;;21.60;15.20;;;;;;;;;;5092210;28;20639;-46
2022/12/15 08:52:07;;;;;;;17.25;8.77;;;;;;;;;;5093364;28;20067;-42
2022/12/15 08:54:33;;;;;;;15.65;8.10;;;;;;;;;;5092589;28;20044;-44
2022/12/15 08:56:59;;;;;;;15.88;6.72;;;;;;;;;;5092520;28;20039;-42
2022/12/15 08:59:26;;;;;;;13.30;6.97;;;;;;;;;;5093197;27;20039;-46
2022/12/15 09:01:52;;;;;;;10.55;5.50;;;;;;;;;;5092736;28;20515;-42
2022/12/15 09:04:18;;;;;;;12.68;6.50;;;;;;;;;;5092688;28;20134;-41
2022/12/15 09:06:45;;;;;;;15.23;6.28;;;;;;;;;;5092713;27;20130;-44
2022/12/15 09:09:12;;;;;;;10.43;5.88;;;;;;;;;;5092263;28;20039;-46
2022/12/15 09:11:38;;;;;;;14.38;8.07;;;;;;;;;;5073920;28;20164;-42
2022/12/15 09:14:05;;;;;;;12.52;7.32;;;1.70;99.90;;;;;;5092588;28;20050;-42
2022/12/15 09:16:31;;;;;;;15.50;6.72;;;;;;;;;;5090760;28;20088;-42
2022/12/15 09:18:58;;;;;;;13.40;6.50;;;1.30;99.90;;;;;;5091534;28;20043;-45
2022/12/15 09:21:25;;;;;;;13.40;6.50;;;;;;;;;;5092576;28;20054;-42
2022/12/15 09:23:52;;;;;;;11.88;6.53;;;;;;;;;;5093142;28;20377;-42
2022/12/15 09:26:20;;;;;;;12.77;6.10;;;0.90;99.90;;;;;;5092891;28;20302;-41
2022/12/15 09:28:47;;;;;;;17.48;7.55;;;;;;;;;;5093019;28;20404;-40
2022/12/15 09:31:14;;;;;;;11.60;6.25;;;;;;;;;;5092611;28;20057;-41
2022/12/15 09:33:41;;;;;;;10.05;6.22;;;;;;;;;;5091913;28;20071;-41
2022/12/15 09:36:08;;;;;;;12.88;5.93;;;;;;;;;;5092467;28;20039;-42
2022/12/15 09:38:34;;;;;;;12.55;6.90;;;;;;;;;;5091868;28;20124;-41
2022/12/15 09:41:08;;;;;;;10.80;6.53;;;;;;;;;;5093278;28;20122;-41
2022/12/15 09:43:34;;;;;;;17.50;6.95;;;;;;;;;;5093034;28;20044;-40
2022/12/15 09:46:03;;;;;;;15.85;7.20;;;;;;;;;;5094156;28;20126;-41
2022/12/15 09:48:39;;;;;;;12.02;6.95;;;1.20;99.90;;;;;;5093785;28;20044;-42
2022/12/15 09:51:08;;;;;;;15.18;7.05;;;;;;;;;;5093399;28;20051;-40
2022/12/15 09:53:35;;;;;;;20.98;9.25;;;;;;;;;;5094259;27;20077;-40
2022/12/15 09:56:04;;;;;;;16.15;6.88;;;;;;;;;;5092752;28;20040;-42
2022/12/15 09:59:04;;;;;;;22.13;7.88;;;3.60;99.90;;;;;;5093681;28;20052;-45
2022/12/15 10:01:40;;;;;;;16.77;7.65;;;4.00;99.90;;;;;;5080807;27;20071;-41
2022/12/15 10:04:14;;;;;;;14.43;7.25;;;4.50;99.90;;;;;;5097033;27;20050;-41
2022/12/15 10:06:51;;;;;;;18.90;7.97;;;4.50;99.90;;;;;;5096554;27;20048;-41
2022/12/15 10:09:28;;;;;;;16.27;6.70;;;4.80;99.90;;;;;;5097347;27;20054;-40
2022/12/15 10:12:20;;;;;;;13.45;6.93;;;4.80;99.90;;;;;;5097323;27;20155;-43
2022/12/15 10:15:04;;;;;;;12.73;6.63;;;5.80;99.90;;;;;;5097481;27;20050;-43
2022/12/15 10:17:45;;;;;;;11.27;5.93;;;4.20;99.90;;;;;;5097688;28;20067;-41
2022/12/15 10:20:20;;;;;;;9.80;5.60;;;3.20;99.90;;;;;;5095861;27;20052;-42
2022/12/15 10:22:47;;;;;;;14.40;5.80;;;2.80;99.90;;;;;;5097506;27;20073;-40
2022/12/15 10:25:13;;;;;;;17.05;9.65;;;;;;;;;;5094608;27;20035;-40
2022/12/15 10:28:13;;;;;;;15.20;7.80;;;2.20;99.90;;;;;;5096119;27;20125;-41
2022/12/15 10:30:47;;;;;;;15.07;8.23;;;2.10;99.90;;;;;;5097033;27;20035;-41
2022/12/15 10:33:18;;;;;;;12.38;6.32;;;;;;;;;;5095746;27;20738;-43
2022/12/15 10:35:44;;;;;;;14.05;5.95;;;;;;;;;;5095522;27;21118;-41
2022/12/15 10:38:36;;;;;;;25.85;10.55;;;1.90;99.90;;;;;;5094908;27;20042;-41
2022/12/15 10:41:17;;;;;;;13.43;6.55;;;1.80;99.90;;;;;;5090657;27;20475;-41
2022/12/15 10:43:47;;;;;;;13.85;5.80;;;1.80;99.90;;;;;;5094960;27;20048;-41
2022/12/15 10:46:23;;;;;;;14.75;6.90;;;;;;;;;;5092712;27;20129;-41
2022/12/15 10:48:58;;;;;;;12.73;6.07;;;;;;;;;;5093928;27;20432;-41
2022/12/15 10:51:24;;;;;;;10.43;5.63;;;;;;;;;;5096257;27;20045;-40
2022/12/15 10:54:03;;;;;;;23.58;9.65;;;1.90;99.90;;;;;;5096263;27;20070;-42
2022/12/15 10:56:30;;;;;;;18.85;8.73;;;;;;;;;;5095291;27;20058;-41
2022/12/15 10:58:57;;;;;;;12.52;6.63;;;;;;;;;;5095701;27;20078;-44
2022/12/15 11:01:26;;;;;;;15.85;6.05;;;2.00;99.90;;;;;;5094460;27;20036;-41
2022/12/15 11:03:52;;;;;;;15.48;6.47;;;;;;;;;;5095445;27;20035;-42
2022/12/15 11:06:28;;;;;;;14.07;7.47;;;1.80;99.90;;;;;;5094804;27;20458;-41
2022/12/15 11:09:05;;;;;;;14.15;6.47;;;1.80;99.90;;;;;;5094715;28;20039;-41
2022/12/15 11:14:26;;;;;;;13.10;6.32;;;2.00;99.90;;;;;;5094629;28;20363;-41
2022/12/15 11:17:05;;;;;;;13.80;7.53;;;2.10;99.90;;;;;;5095823;27;20040;-45
2022/12/15 11:19:57;;;;;;;17.20;6.65;;;2.20;99.90;;;;;;5095750;27;20044;-44
2022/12/15 11:22:42;;;;;;;10.98;6.18;;;;;;;;;;5096120;27;20049;-41
2022/12/15 11:25:14;;;;;;;16.80;8.18;;;2.20;99.90;;;;;;5093376;27;21109;-43
2022/12/15 11:27:43;;;;;;;13.13;6.60;;;2.10;99.90;;;;;;5095621;27;20039;-42
2022/12/15 11:30:14;;;;;;;13.15;6.50;;;;;;;;;;5095872;27;20044;-45
2022/12/15 11:32:54;;;;;;;13.27;5.05;;;2.10;99.90;;;;;;5095997;27;20044;-41
2022/12/15 11:35:23;;;;;;;13.25;6.68;;;;;;;;;;5094835;28;20040;-41
2022/12/15 11:37:55;;;;;;;9.38;5.43;;;2.40;99.90;;;;;;5094261;27;20053;-42
2022/12/15 11:40:30;;;;;;;13.30;6.32;;;;;;;;;;5093957;27;20046;-41
2022/12/15 11:43:33;;;;;;;14.98;5.55;;;2.40;99.90;;;;;;5095162;27;20400;-42
2022/12/15 11:46:00;;;;;;;9.52;4.68;;;;;;;;;;5093921;27;20184;-41
2022/12/15 11:48:40;;;;;;;13.43;6.07;;;2.50;99.90;;;;;;5094104;27;20039;-41
2022/12/15 11:51:23;;;;;;;33.97;12.48;;;2.50;99.90;;;;;;5094769;27;20075;-41
2022/12/15 11:53:49;;;;;;;;;;;;;;;;;;5095629;27;20100;-43
2022/12/15 11:56:22;;;;;;;15.60;6.55;;;;;;;;;;5093794;28;20505;-43
2022/12/15 11:58:48;;;;;;;14.15;5.63;;;;;;;;;;5093750;27;20587;-43
2022/12/15 12:01:39;;;;;;;12.02;4.07;;;2.70;99.90;;;;;;5094129;27;20048;-43
2022/12/15 12:04:50;;;;;;;19.17;7.95;;;2.70;99.90;;;;;;5093655;27;20035;-44
2022/12/15 12:07:48;;;;;;;10.15;5.03;;;2.80;99.90;;;;;;5091060;27;20165;-43
2022/12/15 12:10:27;;;;;;;13.57;5.85;;;;;;;;;;5093382;28;20586;-43
2022/12/15 12:13:00;;;;;;;14.93;4.80;;;2.70;99.90;;;;;;5092938;27;20047;-42
2022/12/15 12:15:46;;;;;;;10.13;4.43;;;2.80;99.90;;;;;;5093331;27;20035;-42
2022/12/15 12:18:21;;;;;;;11.32;4.95;;;;;;;;;;5093320;27;20356;-46
2022/12/15 12:20:53;;;;;;;16.13;6.78;;;2.80;99.90;;;;;;5091913;28;20035;-42
2022/12/15 12:23:26;;;;;;;15.32;6.50;;;1.00;99.90;;;;;;5094227;27;20082;-43
2022/12/15 12:26:01;;;;;;;13.30;5.68;;;2.70;99.90;;;;;;5093418;27;20040;-41
2022/12/15 12:28:34;;;;;;;11.23;5.78;;;2.80;99.90;;;;;;5094005;27;20059;-41
2022/12/15 12:31:03;;;;;;;9.35;4.72;;;2.70;99.90;;;;;;5093527;27;20035;-45
2022/12/15 12:33:44;;;;;;;19.67;9.25;;;2.60;99.90;;;;;;5093873;27;20465;-43
2022/12/15 12:36:11;;;;;;;18.92;6.80;;;;;;;;;;5093336;27;20441;-41
2022/12/15 12:38:56;;;;;;;16.05;6.50;;;2.80;99.90;;;;;;5093932;27;20058;-43
2022/12/15 12:41:43;;;;;;;15.30;6.43;;;2.70;99.90;;;;;;5093155;28;20058;-41
2022/12/15 12:44:23;;;;;;;17.55;4.95;;;3.30;99.90;;;;;;5094021;27;20123;-41
2022/12/15 12:46:54;;;;;;;17.27;5.20;;;2.70;99.90;;;;;;5093514;28;20051;-44
2022/12/15 12:49:38;;;;;;;12.02;4.60;;;2.90;99.90;;;;;;5094340;27;20092;-42
2022/12/15 12:52:13;;;;;;;13.35;5.10;;;2.80;99.90;;;;;;5095344;27;20217;-42
2022/12/15 12:54:43;;;;;;;9.77;3.88;;;2.80;99.90;;;;;;5094795;27;20084;-43
2022/12/15 12:57:12;;;;;;;10.73;3.70;;;2.80;99.90;;;;;;5094487;27;20515;-41
2022/12/15 12:59:42;;;;;;;11.85;3.60;;;2.90;99.90;;;;;;5094528;27;20071;-42
2022/12/15 13:02:20;;;;;;;9.35;3.67;;;2.90;99.90;;;;;;5094833;28;20057;-41
2022/12/15 13:04:59;;;;;;;10.70;3.40;;;2.90;99.90;;;;;;5093619;27;20407;-44
2022/12/15 13:07:40;;;;;;;8.35;3.58;;;2.90;99.90;;;;;;5092664;28;20044;-43
2022/12/15 13:10:16;;;;;;;14.57;4.72;;;3.00;99.90;;;;;;5093304;28;20044;-41
2022/12/15 13:12:51;;;;;;;10.05;3.90;;;2.80;99.90;;;;;;5093241;27;20040;-47
2022/12/15 13:15:41;;;;;;;13.00;4.22;;;3.10;99.90;;;;;;5092725;28;20044;-45
2022/12/15 13:18:16;;;;;;;10.38;3.40;;;2.80;99.90;;;;;;5092741;28;20138;-43
2022/12/15 13:20:43;;;;;;;11.25;3.65;;;;;;;;;;5092513;28;20510;-45
2022/12/15 13:23:18;;;;;;;11.68;4.57;;;2.80;99.90;;;;;;5093236;28;20044;-44
2022/12/15 13:25:53;;;;;;;10.70;3.25;;;;;;;;;;5091769;28;20040;-46
2022/12/15 13:28:28;;;;;;;10.57;3.55;;;2.80;99.90;;;;;;5093305;28;20442;-43
2022/12/15 13:31:12;;;;;;;9.48;3.40;;;;;;;;;;5092565;28;20619;-42
2022/12/15 13:33:54;;;;;;;6.55;3.33;;;2.90;99.90;;;;;;5091747;28;20036;-43
2022/12/15 13:36:38;;;;;;;12.93;3.42;;;2.90;99.90;;;;;;5095043;27;20047;-46
2022/12/15 13:39:16;;;;;;;12.98;3.78;;;2.70;99.90;;;;;;5097338;27;20585;-44
2022/12/15 13:41:48;;;;;;;6.88;2.88;;;2.60;99.90;;;;;;5095428;28;20048;-43
2022/12/15 13:44:30;;;;;;;8.13;3.03;;;2.50;99.90;;;;;;5095539;28;20040;-42
2022/12/15 13:47:10;;;;;;;10.35;3.60;;;2.90;99.90;;;;;;5096250;27;20150;-43
2022/12/15 13:49:45;;;;;;;8.75;3.30;;;3.00;99.90;;;;;;5096447;27;20039;-42
2022/12/15 13:52:30;;;;;;;12.73;3.78;;;2.90;99.90;;;;;;5095899;27;20411;-43
2022/12/15 13:55:02;;;;;;;10.52;3.80;;;3.00;99.90;;;;;;5096738;27;20446;-41
2022/12/15 13:57:33;;;;;;;15.05;3.55;;;3.10;99.90;;;;;;5095442;27;20327;-42
2022/12/15 13:59:59;;;;;;;12.07;3.80;;;;;;;;;;5096297;27;20408;-43
2022/12/15 14:02:29;;;;;;;12.55;3.60;;;3.00;99.90;;;;;;5095316;27;20526;-44
2022/12/15 14:05:05;;;;;;;9.07;3.28;;;;;;;;;;5096431;27;20056;-42
2022/12/15 14:07:31;;;;;;;9.60;3.17;;;;;;;;;;5097106;27;20411;-42
2022/12/15 14:09:57;;;;;;;14.63;3.28;;;;;;;;;;5096640;27;20119;-43
2022/12/15 14:12:23;;;;;;;11.57;3.30;;;;;;;;;;5096615;28;20035;-42
2022/12/15 14:14:51;;;;;;;12.82;3.95;;;;;;;;;;5096287;28;20438;-44
2022/12/15 14:17:18;;;;;;;10.05;3.88;;;3.00;99.90;;;;;;5096521;27;20043;-42
2022/12/15 14:19:47;;;;;;;14.02;4.13;;;2.90;99.90;;;;;;5097040;27;20400;-42
2022/12/15 14:22:24;;;;;;;15.20;4.60;;;2.90;99.90;;;;;;5096270;27;20135;-43
2022/12/15 14:24:51;;;;;;;11.13;4.10;;;2.70;99.90;;;;;;5098247;27;20040;-44
2022/12/15 14:27:25;;;;;;;11.77;5.63;;;2.60;99.90;;;;;;5094565;27;20143;-43
2022/12/15 14:30:13;;;;;;;16.35;4.28;;;2.70;99.90;;;;;;5095354;27;20132;-45
2022/12/15 14:32:40;;;;;;;11.35;4.38;;;2.50;99.90;;;;;;5096324;27;20051;-43
2022/12/15 14:35:13;;;;;;;12.27;4.15;;;2.40;99.90;;;;;;5095560;27;20056;-42
2022/12/15 14:37:40;;;;;;;11.55;3.53;;;;;;;;;;5095508;27;20039;-42
2022/12/15 14:40:06;;;;;;;17.40;6.25;;;;;;;;;;5094518;27;20044;-43
2022/12/15 14:42:32;;;;;;;13.35;4.25;;;;;;;;;;5095272;27;20053;-42
2022/12/15 14:44:58;;;;;;;12.45;4.72;;;;;;;;;;5095139;28;20043;-43
2022/12/15 14:47:27;;;;;;;13.02;3.75;;;2.40;99.90;;;;;;5094903;27;20457;-43
2022/12/15 14:49:56;;;;;;;14.02;4.07;;;2.60;99.90;;;;;;5095684;27;20069;-43
2022/12/15 14:52:36;;;;;;;10.68;3.63;;;2.60;99.90;;;;;;5094157;27;20478;-43
2022/12/15 14:55:34;;;;;;;9.30;3.72;;;2.60;83.30;;;;;;5097132;27;20063;-43
2022/12/15 14:58:01;;;;;;;14.45;3.75;;;2.60;89.70;;;;;;5094508;27;20063;-43
2022/12/15 15:00:46;;;;;;;15.02;4.35;;;2.50;91.40;;;;;;5092373;27;20039;-42
2022/12/15 15:03:18;;;;;;;9.27;4.03;;;2.40;90.90;;;;;;5094881;28;20067;-44
2022/12/15 15:05:46;;;;;;;11.45;4.13;;;2.40;92.40;;;;;;5095670;27;20040;-44
2022/12/15 15:08:40;;;;;;;10.18;4.63;;;2.30;92.20;;;;;;5095066;27;20082;-46
2022/12/15 15:11:25;;;;;;;16.23;4.80;;;2.10;95.40;;;;;;5095293;27;20591;-42
2022/12/15 15:14:21;;;;;;;13.43;4.53;;;2.10;95.40;;;;;;5095432;27;20408;-45
2022/12/15 15:16:58;;;;;;;9.60;4.35;;;2.00;95.10;;;;;;5093462;27;20048;-42
2022/12/15 15:19:24;;;;;;;10.43;4.90;;;;;;;;;;5093202;27;20139;-43
2022/12/15 15:21:50;;;;;;;12.75;5.22;;;;;;;;;;5093702;28;20040;-44
2022/12/15 15:24:16;;;;;;;17.02;5.15;;;;;;;;;;5095688;27;20058;-42
2022/12/15 15:26:42;;;;;;;14.65;6.13;;;;;;;;;;5093087;27;20042;-43
2022/12/15 15:29:37;;;;;;;12.77;5.40;;;1.60;99.90;;;;;;5095442;27;20050;-45
2022/12/15 15:32:17;;;;;;;12.95;5.53;;;1.70;99.90;;;;;;5096001;27;20118;-42
2022/12/15 15:34:45;;;;;;;15.07;5.22;;;1.60;99.90;;;;;;5095095;27;20046;-48
2022/12/15 15:37:23;;;;;;;13.43;5.45;;;1.40;99.90;;;;;;5095507;27;20389;-43
2022/12/15 15:39:58;;;;;;;12.85;5.10;;;;;;;;;;5093285;27;20408;-42
2022/12/15 15:42:24;;;;;;;16.05;5.00;;;;;;;;;;5094765;27;20500;-41
2022/12/15 15:44:50;;;;;;;15.82;5.43;;;;;;;;;;5094388;27;20476;-43
2022/12/15 15:47:23;;;;;;;14.57;5.63;;;1.30;99.90;;;;;;5095131;27;22219;-45
2022/12/15 15:49:50;;;;;;;11.90;5.20;;;1.60;99.90;;;;;;5094566;27;20044;-45
2022/12/15 15:52:16;;;;;;;13.48;6.10;;;;;;;;;;5093950;28;20495;-44
2022/12/15 15:54:43;;;;;;;15.13;5.15;;;;;;;;;;5096211;27;20035;-42
2022/12/15 15:57:18;;;;;;;14.73;6.07;;;1.60;99.90;;;;;;5093933;28;20048;-43
2022/12/15 15:59:45;;;;;;;13.38;6.20;;;1.60;99.90;;;;;;5093102;28;20044;-44
2022/12/15 16:02:14;;;;;;;13.00;6.05;;;;;;;;;;5091923;28;20035;-42
2022/12/15 16:04:41;;;;;;;13.80;6.55;;;;;;;;;;5093790;27;20518;-46
2022/12/15 16:07:27;;;;;;;11.50;5.65;;;1.50;99.90;;;;;;5093288;27;20502;-42
2022/12/15 16:09:54;;;;;;;15.07;6.40;;;;;;;;;;5092973;27;20040;-43
2022/12/15 16:12:30;;;;;;;15.20;6.53;;;1.60;99.90;;;;;;5093690;27;20377;-42
2022/12/15 16:14:56;;;;;;;13.02;5.82;;;;;;;;;;5093407;27;20048;-42
2022/12/15 16:17:22;;;;;;;15.00;6.93;;;;;;;;;;5093851;27;20063;-42
2022/12/15 16:19:49;;;;;;;15.73;6.32;;;;;;;;;;5094659;27;20047;-45
2022/12/15 16:22:17;;;;;;;11.88;5.82;;;1.30;99.90;;;;;;5092133;28;20412;-44
2022/12/15 16:24:43;;;;;;;13.82;7.07;;;;;;;;;;5093303;27;20055;-42
2022/12/15 16:27:11;;;;;;;11.80;6.05;;;1.20;99.90;;;;;;5092564;28;20046;-45
2022/12/15 16:29:37;;;;;;;16.10;6.43;;;;;;;;;;5093005;27;20047;-43
2022/12/15 16:32:05;;;;;;;18.70;7.68;;;1.20;99.90;;;;;;5092218;27;20308;-45
2022/12/15 16:34:31;;;;;;;14.48;8.02;;;;;;;;;;5092939;27;20051;-44
2022/12/15 16:36:58;;;;;;;14.48;7.75;;;;;;;;;;5093879;27;20437;-43